Time;durP1;ratioP1;P1;durP2;ratioP2;P2;SDS_P1;SDS_P2;PMS_P1;PMS_P2;Temp;Humidity;BMP_temperature;BMP_pressure;BME280_temperature;BME280_humidity;BME280_pressure;Samples;Min_cycle;Max_cycle;Signal;HPM_P1;HPM_P2
2022/05/10 00:00:06;;;;;;;2.90;2.33;;;;;;;6.05;100.00;101523.92;1731337;82;21038;-87
2022/05/10 00:02:36;;;;;;;4.65;2.52;;;;;;;6.05;100.00;101520.52;1731762;82;21545;-88
2022/05/10 00:05:05;;;;;;;3.15;2.52;;;;;;;6.06;100.00;101522.16;1730929;81;22205;-85
2022/05/10 00:07:36;;;;;;;2.30;2.10;;;;;;;6.07;100.00;101523.84;1731227;82;21031;-90
2022/05/10 00:10:08;;;;;;;5.53;2.67;;;;;;;6.06;100.00;101523.02;1731367;81;21015;-87
2022/05/10 00:12:37;;;;;;;4.28;2.72;;;;;;;6.05;100.00;101526.51;1731229;82;21580;-86
2022/05/10 00:15:08;;;;;;;6.83;2.80;;;;;;;6.02;100.00;101520.63;1731142;82;21943;-84
2022/05/10 00:17:40;;;;;;;5.67;3.20;;;;;;;6.00;100.00;101520.23;1731138;82;21031;-87
2022/05/10 00:20:17;;;;;;;7.25;3.10;;;;;;;6.01;100.00;101523.65;1710928;82;21133;-86
2022/05/10 00:22:45;;;;;;;4.12;3.10;;;;;;;6.00;100.00;101520.23;1731046;81;21003;-83
2022/05/10 00:25:16;;;;;;;4.25;2.80;;;;;;;5.98;100.00;101522.47;1731273;82;21055;-85
2022/05/10 00:27:45;;;;;;;4.53;3.33;;;;;;;5.94;100.00;101519.60;1710221;82;42927;-84
2022/05/10 00:30:14;;;;;;;3.98;3.10;;;;;;;5.90;100.00;101521.94;1730893;81;21059;-85
2022/05/10 00:32:42;;;;;;;6.30;3.20;;;;;;;5.85;100.00;101517.78;1731196;82;21433;-85
2022/05/10 00:35:17;;;;;;;3.77;2.90;;;;;;;5.82;100.00;101524.83;1731088;81;21159;-87
2022/05/10 00:37:47;;;;;;;5.47;2.92;;;;;;;5.80;100.00;101521.48;1731078;81;21054;-87
2022/05/10 00:40:19;;;;;;;3.87;2.98;;;;;;;5.80;100.00;101518.90;1731108;82;21160;-85
2022/05/10 00:43:16;;;;;;;6.05;3.52;;;;;;;5.82;100.00;101524.83;1728552;82;20991;-87
2022/05/10 00:45:54;;;;;;;7.35;3.55;;;;;;;5.80;100.00;101524.07;1730945;81;21490;-85
2022/05/10 00:48:33;;;;;;;6.35;3.55;;;;;;;5.76;100.00;101516.89;1674399;84;21118;-86
2022/05/10 00:51:16;;;;;;;5.00;3.35;;;;;;;5.78;100.00;101518.11;1674288;84;21078;-86
2022/05/10 00:53:49;;;;;;;6.17;3.17;;;;;;;5.80;100.00;101520.19;1729113;81;21224;-87
2022/05/10 00:56:41;;;;;;;3.77;3.10;;;;;;;5.81;100.00;101521.41;1728481;81;21069;-86
2022/05/10 00:59:28;;;;;;;5.28;3.30;;;;;;;5.85;100.00;101522.95;1731289;82;21003;-85
2022/05/10 01:02:04;;;;;;;3.08;2.60;;;;;;;5.93;100.00;101525.70;1731105;81;21066;-86
2022/05/10 01:04:46;;;;;;;4.75;2.92;;;;;;;5.97;100.00;101520.31;1672905;85;21092;-86
2022/05/10 01:07:34;;;;;;;3.95;2.58;;;;;;;6.02;100.00;101521.92;1690156;83;21082;-87
2022/05/10 01:10:33;;;;;;;3.27;2.62;;;;;;;6.06;100.00;101526.91;1671824;84;21141;-86
2022/05/10 01:13:19;;;;;;;4.00;2.77;;;;;;;6.10;100.00;101523.73;1674740;84;21823;-86
2022/05/10 01:16:08;;;;;;;3.22;2.45;;;;;;;6.13;100.00;101523.59;1722743;82;21933;-87
2022/05/10 01:18:38;;;;;;;3.67;2.70;;;;;;;6.14;100.00;101530.45;1731500;81;21026;-91
2022/05/10 01:21:25;;;;;;;4.12;2.80;;;;;;;6.15;100.00;101531.70;1731636;81;21225;-89
2022/05/10 01:24:07;;;;;;;5.45;2.70;;;;;;;6.15;100.00;101530.84;1727976;81;21050;-87
2022/05/10 01:27:10;;;;;;;3.33;2.60;;;;;;;6.12;100.00;101533.11;1697710;81;21082;-89
2022/05/10 01:29:48;;;;;;;2.67;2.10;;;;;;;6.05;100.00;101530.86;1731167;81;21020;-87
2022/05/10 01:35:11;;;;;;;6.83;2.70;;;;;;;6.00;100.00;101534.45;1731726;81;21104;-85
2022/05/10 01:37:43;;;;;;;5.62;2.50;;;;;;;5.99;100.00;101530.19;1725528;81;21058;-84
2022/05/10 01:40:28;;;;;;;4.30;2.40;;;;;;;5.92;100.00;101529.19;1728751;82;21032;-85
2022/05/10 01:43:04;;;;;;;3.20;2.77;;;;;;;5.81;100.00;101529.16;1728377;82;21030;-86
2022/05/10 01:45:37;;;;;;;3.83;2.60;;;;;;;5.74;100.00;101526.88;1727107;82;21573;-89
2022/05/10 01:48:09;;;;;;;4.37;2.65;;;;;;;5.69;100.00;101527.92;1725888;81;21108;-87
2022/05/10 01:50:58;;;;;;;3.50;2.60;;;;;;;5.65;100.00;101530.69;1728400;81;21031;-87
2022/05/10 01:53:35;;;;;;;2.75;2.45;;;;;;;5.58;100.00;101530.53;1731408;81;21078;-87
2022/05/10 01:56:13;;;;;;;4.15;2.50;;;;;;;5.47;100.00;101533.55;1731404;81;21018;-92
2022/05/10 01:58:43;;;;;;;6.67;2.62;;;;;;;5.38;100.00;101534.73;1731114;82;21624;-88
2022/05/10 02:01:15;;;;;;;2.72;2.22;;;;;;;5.29;100.00;101536.40;1731165;81;21827;-86
2022/05/10 02:03:57;;;;;;;4.72;2.65;;;;;;;5.20;100.00;101534.55;1728652;81;21069;-87
2022/05/10 02:06:50;;;;;;;2.95;2.40;;;;;;;5.12;100.00;101535.30;1731850;82;21618;-84
2022/05/10 02:09:48;;;;;;;4.37;2.65;;;;;;;5.06;100.00;101536.78;1727325;82;21828;-86
2022/05/10 02:12:24;;;;;;;5.37;2.67;;;;;;;5.00;100.00;101541.75;1731439;82;21075;-87
2022/05/10 02:15:03;;;;;;;5.58;2.75;;;;;;;4.85;100.00;101535.41;1728326;81;22164;-86
2022/05/10 02:17:45;;;;;;;3.65;2.62;;;;;;;4.69;100.00;101540.26;1709135;82;21576;-86
2022/05/10 02:20:17;;;;;;;4.05;3.25;;;;;;;4.58;100.00;101545.80;1730272;82;21063;-88
2022/05/10 02:22:53;;;;;;;4.15;2.70;;;;;;;4.51;100.00;101549.49;1728681;81;21518;-86
2022/05/10 02:25:31;;;;;;;5.62;3.10;;;;;;;4.47;100.00;101545.78;1726042;82;21043;-86
2022/05/10 02:28:37;;;;;;;3.00;2.55;;;;;;;4.45;100.00;101552.75;1729527;81;21251;-86
2022/05/10 02:31:16;;;;;;;4.85;2.55;;;;;;;4.38;100.00;101547.78;1731350;82;20984;-86
2022/05/10 02:33:46;;;;;;;4.30;3.05;;;;;;;4.29;100.00;101554.53;1727734;82;21051;-86
2022/05/10 02:36:13;;;;;;;4.80;2.97;;;;;;;4.18;100.00;101546.34;1731153;81;21074;-86
2022/05/10 02:38:42;;;;;;;4.85;2.83;;;;;;;4.00;100.00;101546.50;1731387;82;20988;-88
2022/05/10 02:41:17;;;;;;;4.67;2.90;;;;;;;3.78;100.00;101554.47;1731424;81;21998;-85
2022/05/10 02:43:55;;;;;;;3.77;2.90;;;;;;;3.65;100.00;101559.59;1729173;81;20979;-86
2022/05/10 02:46:26;;;;;;;5.12;2.87;;;;;;;3.58;100.00;101564.11;1733466;81;21102;-86
2022/05/10 02:48:54;;;;;;;2.50;2.22;;;;;;;3.61;100.00;101566.57;1710963;82;21034;-91
2022/05/10 02:51:23;;;;;;;4.00;2.85;;;;;;;3.68;100.00;101563.83;1735734;81;21070;-89
2022/05/10 02:53:50;;;;;;;3.02;2.62;;;;;;;3.77;100.00;101568.24;1767410;80;21170;-86
2022/05/10 02:56:23;;;;;;;3.60;2.33;;;;;;;3.91;100.00;101570.81;1782167;80;20995;-86
2022/05/10 02:59:14;;;;;;;2.80;2.33;;;;;;;4.04;100.00;101571.27;1783447;80;21050;-86
2022/05/10 03:01:55;;;;;;;6.50;2.80;;;;;;;4.19;100.00;101569.48;1769960;80;21132;-86
2022/05/10 03:04:23;;;;;;;4.08;3.52;;;;;;;4.37;100.00;101570.59;1774501;80;21512;-86
2022/05/10 03:06:50;;;;;;;5.15;3.52;;;;;;;4.54;100.00;101567.88;1773352;80;21143;-86
2022/05/10 03:09:18;;;;;;;5.53;3.92;;;;;;;4.65;100.00;101561.06;1773498;80;21066;-86
2022/05/10 03:11:46;;;;;;;5.22;4.03;;;;;;;4.78;100.00;101564.91;1773587;80;21061;-89
2022/05/10 03:14:13;;;;;;;4.05;3.50;;;;;;;4.91;100.00;101565.31;1774050;80;21042;-87
2022/05/10 03:16:41;;;;;;;4.65;4.10;;;;;;;5.05;100.00;101570.81;1751792;80;21695;-87
2022/05/10 03:19:08;;;;;;;7.33;3.72;;;;;;;5.21;100.00;101568.48;1773386;80;21102;-86
2022/05/10 03:21:37;;;;;;;5.08;3.70;;;;;;;5.35;100.00;101568.44;1773520;80;21046;-87
2022/05/10 03:24:05;;;;;;;6.15;4.05;;;;;;;5.49;100.00;101570.05;1773509;80;21079;-87
2022/05/10 03:26:33;;;;;;;10.32;4.08;;;;;;;5.62;100.00;101577.30;1773524;80;21025;-87
2022/05/10 03:29:01;;;;;;;6.17;3.98;;;;;;;5.74;100.00;101574.25;1773388;80;21015;-88
2022/05/10 03:31:29;;;;;;;4.40;3.98;;;;;;;5.86;100.00;101575.52;1773435;80;21253;-87
2022/05/10 03:36:43;;;;;;;5.28;3.77;;;;;;;6.04;100.00;101577.00;1773556;80;21069;-88
2022/05/10 03:39:10;;;;;;;5.40;3.87;;;;;;;6.15;100.00;101575.66;1773880;80;21022;-87
2022/05/10 03:41:38;;;;;;;5.65;3.98;;;;;;;6.24;100.00;101578.30;1773706;80;21045;-88
2022/05/10 03:44:06;;;;;;;4.67;3.45;;;;;;;6.33;100.00;101574.95;1773775;80;21781;-89
2022/05/10 03:46:34;;;;;;;8.70;3.30;;;;;;;6.41;100.00;101576.77;1773631;80;21006;-90
2022/05/10 03:49:02;;;;;;;4.20;3.52;;;;;;;6.51;100.00;101579.36;1774049;80;21038;-85
2022/05/10 03:51:31;;;;;;;4.95;3.35;;;;;;;6.60;100.00;101576.81;1773456;80;21038;-87
2022/05/10 03:54:01;;;;;;;5.47;2.70;;;;;;;6.69;100.00;101580.77;1772711;80;21097;-87
2022/05/10 03:56:28;;;;;;;4.07;2.87;;;;;;;6.76;100.00;101586.06;1773249;80;22199;-89
2022/05/10 03:58:58;;;;;;;5.42;2.90;;;;;;;6.84;100.00;101589.59;1762593;80;21064;-86
2022/05/10 04:01:27;;;;;;;4.35;3.02;;;;;;;6.97;100.00;101588.14;1744766;80;21040;-89
2022/05/10 04:03:54;;;;;;;3.33;2.80;;;;;;;7.05;100.00;101589.11;1741073;81;20997;-90
2022/05/10 04:06:25;;;;;;;2.90;2.60;;;;;;;7.13;100.00;101589.61;1741344;81;21079;-87
2022/05/10 04:08:52;;;;;;;5.17;2.90;;;;;;;7.22;100.00;101585.31;1742280;81;21941;-87
2022/05/10 04:11:20;;;;;;;10.72;2.90;;;;;;;7.31;100.00;101585.33;1741091;81;21123;-88
2022/05/10 04:13:50;;;;;;;6.67;3.00;;;;;;;7.39;100.00;101583.70;1742384;80;21558;-88
2022/05/10 04:16:18;;;;;;;5.65;2.90;;;;;;;7.45;100.00;101583.41;1742195;80;21079;-87
2022/05/10 04:18:45;;;;;;;5.78;2.70;;;;;;;7.53;100.00;101578.70;1741942;81;21363;-88
2022/05/10 04:21:13;;;;;;;5.30;3.10;;;;;;;7.62;100.00;101580.02;1742180;81;21009;-87
2022/05/10 04:23:40;;;;;;;3.55;2.80;;;;;;;7.70;100.00;101579.19;1742596;80;21452;-87
2022/05/10 04:26:12;;;;;;;3.20;2.75;;;;;;;7.81;100.00;101579.97;1742261;81;21044;-89
2022/05/10 04:28:41;;;;;;;5.45;3.12;;;;;;;7.93;100.00;101575.12;1742915;80;21020;-89
2022/05/10 04:31:09;;;;;;;4.33;3.30;;;;;;;8.03;100.00;101578.95;1742106;80;21048;-88
2022/05/10 04:33:40;;;;;;;5.60;2.90;;;;;;;8.15;100.00;101583.52;1742243;80;21146;-86
2022/05/10 04:36:08;;;;;;;4.97;2.95;;;;;;;8.26;100.00;101580.86;1760524;80;21054;-86
2022/05/10 04:38:36;;;;;;;5.28;3.42;;;;;;;8.34;100.00;101572.23;1772347;80;21181;-86
2022/05/10 04:44:28;;;;;;;5.72;3.67;;;;;;;8.46;100.00;101584.58;1773553;80;21034;-89
2022/05/10 04:46:56;;;;;;;4.75;2.90;;;;;;;8.56;100.00;101586.73;1772740;80;21275;-88
2022/05/10 04:49:25;;;;;;;5.15;3.30;;;;;;;8.65;100.00;101586.27;1761486;80;21074;-87
2022/05/10 04:51:56;;;;;;;4.72;3.10;;;;;;;8.74;100.00;101588.84;1736624;81;21050;-88
2022/05/10 04:54:27;;;;;;;4.53;3.30;;;;;;;8.87;100.00;101591.64;1759448;81;21011;-87
2022/05/10 04:56:56;;;;;;;4.30;3.00;;;;;;;9.12;100.00;101582.94;1764399;81;21527;-85
2022/05/10 05:00:07;;;;;;;5.45;2.90;;;;;;;9.57;100.00;101586.19;1757074;81;21245;-87
2022/05/10 05:02:34;;;;;;;4.45;3.15;;;;;;;10.20;100.00;101579.17;1728703;81;21071;-85
2022/05/10 05:05:04;;;;;;;4.40;2.70;;;;;;;10.54;100.00;101581.10;1729604;82;21053;-90
2022/05/10 05:07:33;;;;;;;5.08;3.02;;;;;;;10.01;100.00;101576.33;1734531;82;21041;-87
2022/05/10 05:10:02;;;;;;;5.30;3.08;;;;;;;9.92;100.00;101579.45;1734478;82;21722;-87
2022/05/10 05:12:32;;;;;;;5.83;2.70;;;;;;;9.98;98.57;101580.87;1734287;82;21210;-88
2022/05/10 05:14:59;;;;;;;4.87;2.67;;;;;;;10.08;92.22;101591.95;1723034;81;21033;-86
2022/05/10 05:17:29;;;;;;;4.55;2.55;;;;;;;10.21;84.47;101589.96;1703136;82;21133;-87
2022/05/10 05:19:56;;;;;;;4.20;2.75;;;;;;;10.34;78.53;101592.66;1682706;84;21037;-86
2022/05/10 05:22:23;;;;;;;6.00;2.87;;;;;;;10.45;75.69;101595.99;1718455;81;21118;-87
2022/05/10 05:24:50;;;;;;;3.02;2.22;;;;;;;10.55;73.35;101594.05;1734860;82;21544;-86
2022/05/10 05:27:19;;;;;;;3.87;2.40;;;;;;;10.68;73.22;101594.61;1738636;82;20947;-87
2022/05/10 05:29:47;;;;;;;5.75;2.20;;;;;;;10.83;71.88;101596.77;1728956;82;21547;-87
2022/05/10 05:32:17;;;;;;;5.10;2.50;;;;;;;10.95;68.87;101594.70;1728749;81;21003;-86
2022/05/10 05:34:47;;;;;;;4.65;2.45;;;;;;;11.06;67.91;101590.13;1726914;82;21122;-88
2022/05/10 05:37:33;;;;;;;3.17;2.50;;;;;;;11.19;68.08;101590.20;1723688;82;21255;-87
2022/05/10 05:40:12;;;;;;;4.75;2.10;;;;;;;11.62;100.00;101578.83;1694110;83;21048;-87
2022/05/10 05:42:42;;;;;;;3.45;2.15;;;;;;;12.17;80.96;101578.82;1694648;83;21100;-87
2022/05/10 05:45:12;;;;;;;2.55;2.17;;;;;;;11.98;69.98;101579.55;1674248;84;21104;-88
2022/05/10 05:47:40;;;;;;;7.92;3.27;;;;;;;11.91;69.68;101578.25;1694564;83;21033;-88
2022/05/10 05:50:11;;;;;;;5.83;2.15;;;;;;;11.90;69.07;101574.45;1694251;83;21136;-87
2022/05/10 05:52:39;;;;;;;4.30;2.10;;;;;;;11.94;68.32;101574.14;1694231;83;21088;-91
2022/05/10 05:55:08;;;;;;;8.78;2.17;;;;;;;12.04;68.32;101569.66;1694224;83;21340;-88
2022/05/10 05:57:36;;;;;;;4.45;2.10;;;;;;;12.09;69.52;101564.95;1694634;83;21036;-88
2022/05/10 06:00:09;;;;;;;3.92;1.85;;;;;;;12.18;70.90;101566.96;1694117;83;21491;-87
2022/05/10 06:02:42;;;;;;;2.37;1.60;;;;;;;12.29;67.91;101557.95;1734067;82;21239;-87
2022/05/10 06:05:10;;;;;;;4.22;1.75;;;;;;;12.40;64.20;101561.59;1699338;83;21110;-88
2022/05/10 06:07:37;;;;;;;2.67;1.50;;;;;;;12.47;62.63;101557.62;1737086;81;21046;-87
2022/05/10 06:10:08;;;;;;;6.53;1.80;;;;;;;12.53;57.43;101557.67;1737197;82;21069;-88
2022/05/10 06:12:37;;;;;;;3.12;1.57;;;;;;;12.54;56.46;101554.95;1737283;82;21037;-92
2022/05/10 06:15:10;;;;;;;3.55;1.75;;;;;;;12.61;58.46;101547.53;1737147;82;21248;-87
2022/05/10 06:17:41;;;;;;;4.58;1.85;;;;;;;12.74;58.95;101550.13;1698828;83;21107;-87
2022/05/10 06:20:12;;;;;;;2.67;1.60;;;;;;;12.85;58.07;101551.54;1736964;82;21544;-87
2022/05/10 06:22:44;;;;;;;2.20;1.60;;;;;;;12.96;55.88;101552.55;1696449;83;21071;-88
2022/05/10 06:25:17;;;;;;;2.15;1.35;;;;;;;13.08;55.04;101539.44;1737373;82;21034;-92
2022/05/10 06:27:49;;;;;;;2.17;1.62;;;;;;;13.19;54.58;101542.59;1699415;83;21131;-87
2022/05/10 06:30:18;;;;;;;1.47;1.37;;;;;;;13.26;53.23;101545.13;1710190;81;21539;-88
2022/05/10 06:32:46;;;;;;;2.22;1.22;;;;;;;13.36;51.69;101544.47;1699348;83;21044;-87
2022/05/10 06:35:17;;;;;;;2.83;1.45;;;;;;;13.47;51.88;101537.18;1677510;85;21530;-90
2022/05/10 06:40:32;;;;;;;1.72;1.00;;;;;;;13.51;48.44;101535.54;1736647;82;21557;-87
2022/05/10 06:43:00;;;;;;;1.72;1.10;;;;;;;13.53;48.76;101537.58;1699264;83;21021;-86
2022/05/10 06:45:29;;;;;;;1.77;1.20;;;;;;;13.52;45.82;101533.77;1699167;83;21687;-87
2022/05/10 06:47:58;;;;;;;3.00;1.40;;;;;;;13.50;46.20;101533.87;1699384;83;21024;-89
2022/05/10 06:50:27;;;;;;;2.67;1.75;;;;;;;13.47;47.05;101537.18;1736804;82;21593;-88
2022/05/10 06:52:58;;;;;;;1.80;1.12;;;;;;;13.45;48.09;101535.17;1736739;82;21136;-88
2022/05/10 06:55:27;;;;;;;;;;;;;;;13.49;47.88;101529.61;1700852;83;21576;-88
2022/05/10 06:57:55;;;;;;;3.15;1.30;;;;;;;13.60;48.51;101522.27;1681264;84;20153;-87
2022/05/10 07:00:25;;;;;;;1.20;1.02;;;;;;;13.74;48.58;101521.23;1719038;82;21514;-87
2022/05/10 07:02:53;;;;;;;1.45;1.10;;;;;;;13.86;46.58;101521.64;1715953;83;21062;-86
2022/05/10 07:05:21;;;;;;;1.82;1.20;;;;;;;13.96;45.97;101513.92;1720689;82;21795;-87
2022/05/10 07:07:48;;;;;;;2.65;1.35;;;;;;;14.05;43.10;101521.58;1736997;82;21303;-87
2022/05/10 07:10:18;;;;;;;1.60;1.27;;;;;;;14.07;39.17;101523.58;1735562;81;21034;-86
2022/05/10 07:12:46;;;;;;;1.05;0.95;;;;;;;13.99;42.61;101518.09;1732169;82;21037;-88
2022/05/10 07:15:18;;;;;;;1.37;1.10;;;;;;;13.95;43.24;101508.33;1737175;82;21431;-91
2022/05/10 07:17:53;;;;;;;4.67;1.50;;;;;;;13.99;43.52;101513.70;1733098;82;21174;-91
2022/05/10 07:20:21;;;;;;;1.95;1.10;;;;;;;14.09;41.39;101513.02;1737076;82;21003;-88
2022/05/10 07:22:49;;;;;;;2.22;1.40;;;;;;;14.14;41.15;101506.94;1736688;82;21548;-87
2022/05/10 07:25:21;;;;;;;1.62;1.42;;;;;;;14.22;41.95;101503.75;1736836;82;21098;-88
2022/05/10 07:27:48;;;;;;;3.12;1.15;;;;;;;14.25;40.58;101508.27;1736988;81;21026;-86
2022/05/10 07:30:16;;;;;;;1.77;1.10;;;;;;;14.27;41.65;101512.89;1737204;82;21153;-87
2022/05/10 07:32:44;;;;;;;1.57;1.22;;;;;;;14.21;41.54;101506.83;1736827;81;21536;-91
2022/05/10 07:43:25;;;;;;;2.45;1.30;;;;;;;13.72;38.82;101499.11;1736978;81;21069;-84
2022/05/10 07:46:01;;;;;;;1.85;1.47;;;;;;;13.57;40.06;101497.63;1730065;82;21866;-83
2022/05/10 07:48:32;;;;;;;2.05;1.70;;;;;;;13.83;37.90;101502.22;1689813;83;21078;-82
2022/05/10 07:51:02;;;;;;;2.92;1.90;;;;;;;14.08;38.59;101495.63;1717086;83;21330;-83
2022/05/10 07:53:35;;;;;;;3.60;1.42;;;;;;;14.22;38.12;101488.03;1723080;81;21813;-84
2022/05/10 07:56:18;;;;;;;3.02;1.50;;;;;;;14.36;39.34;101501.72;1723076;80;21089;-82
2022/05/10 07:58:47;;;;;;;2.35;1.60;;;;;;;14.56;38.11;101495.41;1741135;80;21348;-83
2022/05/10 08:01:15;;;;;;;2.47;1.60;;;;;;;14.67;36.67;101487.56;1735781;82;21092;-82
2022/05/10 08:03:43;;;;;;;2.02;1.60;;;;;;;14.63;36.63;101489.20;1731785;81;21002;-82
2022/05/10 08:06:15;;;;;;;3.55;1.75;;;;;;;14.59;39.78;101483.85;1737174;82;21045;-82
2022/05/10 08:08:44;;;;;;;1.87;1.62;;;;;;;14.75;38.82;101490.90;1736927;82;21120;-84
2022/05/10 08:11:40;;;;;;;2.85;1.47;;;;;;;15.04;38.73;101480.35;1739011;81;21163;-82
2022/05/10 08:14:10;;;;;;;2.27;1.35;;;;;;;15.25;38.10;101485.16;1742239;81;21037;-83
2022/05/10 08:16:43;;;;;;;1.55;1.25;;;;;;;15.27;35.53;101479.32;1741818;81;21330;-82
2022/05/10 08:19:10;;;;;;;2.00;1.60;;;;;;;15.07;35.02;101479.62;1741875;81;20994;-82
2022/05/10 08:21:38;;;;;;;2.20;1.60;;;;;;;14.74;35.56;101483.98;1742009;82;21037;-86
2022/05/10 08:24:14;;;;;;;3.00;1.30;;;;;;;14.67;34.38;101482.80;1742166;81;21238;-81
2022/05/10 08:26:47;;;;;;;1.82;1.42;;;;;;;14.70;35.98;101476.02;1713178;82;21774;-81
2022/05/10 08:29:27;;;;;;;2.02;1.65;;;;;;;14.80;36.46;101467.76;1735182;81;21068;-82
2022/05/10 08:32:07;;;;;;;3.77;1.77;;;;;;;14.82;36.06;101469.79;1733208;80;21057;-82
2022/05/10 08:35:16;;;;;;;3.10;1.90;;;;;;;14.80;36.11;101478.73;1752443;80;21100;-81
2022/05/10 08:37:53;;;;;;;2.65;1.50;;;;;;;14.82;33.32;101467.16;1731360;81;21129;-81
2022/05/10 08:40:48;;;;;;;2.52;1.37;;;;;;;14.80;38.66;101469.56;1728542;81;21073;-82
2022/05/10 08:43:42;;;;;;;3.25;1.47;;;;;;;14.93;33.90;101458.44;1724239;81;21082;-82
2022/05/10 08:49:55;;;;;;;3.22;1.70;;;;;;;14.95;35.03;101453.06;1737287;81;21646;-82
2022/05/10 08:52:27;;;;;;;4.25;1.57;;;;;;;14.85;37.47;101456.09;1666848;83;21156;-85
2022/05/10 08:54:54;;;;;;;3.05;1.70;;;;;;;14.70;33.01;101449.80;1690814;83;21062;-81
2022/05/10 08:57:41;;;;;;;1.70;1.60;;;;;;;14.36;38.53;101448.50;1711037;82;21575;-81
2022/05/10 09:00:32;;;;;;;1.90;1.40;;;;;;;14.42;36.75;101448.01;1690376;83;21068;-81
2022/05/10 09:03:19;;;;;;;4.28;1.77;;;;;;;14.89;36.91;101436.52;1672835;84;21587;-82
2022/05/10 09:05:50;;;;;;;1.62;1.30;;;;;;;15.35;36.13;101424.89;1698628;84;21162;-82
2022/05/10 09:08:32;;;;;;;2.08;1.50;;;;;;;15.48;33.98;101439.63;1687697;84;21070;-88
2022/05/10 09:11:36;;;;;;;1.67;1.57;;;;;;;15.22;34.96;101424.24;1701182;83;21129;-81
2022/05/10 09:14:06;;;;;;;1.47;1.37;;;;;;;14.88;35.59;101429.60;1729928;81;21013;-81
2022/05/10 09:16:35;;;;;;;4.22;1.90;;;;;;;14.62;34.71;101425.96;1730244;82;21068;-81
2022/05/10 09:19:02;;;;;;;3.42;1.60;;;;;;;14.36;35.84;101430.98;1737692;82;21199;-82
2022/05/10 09:21:49;;;;;;;1.65;1.40;;;;;;;14.22;36.91;101436.95;1732623;82;21087;-81
2022/05/10 09:24:49;;;;;;;2.92;1.60;;;;;;;14.26;35.57;101431.81;1733636;82;21064;-82
2022/05/10 09:27:20;;;;;;;2.47;1.60;;;;;;;14.41;37.11;101412.77;1711469;82;21049;-81
2022/05/10 09:29:50;;;;;;;3.67;1.67;;;;;;;14.73;36.32;101418.58;1715054;83;21049;-81
2022/05/10 09:35:26;;;;;;;2.77;1.52;;;;;;;14.39;36.06;101415.48;1707236;83;21041;-81
2022/05/10 09:38:00;;;;;;;3.08;1.60;;;;;;;14.12;35.35;101408.86;1717676;83;21595;-80
2022/05/10 09:40:48;;;;;;;2.15;1.82;;;;;;;13.96;35.76;101408.38;1729162;82;22125;-80
2022/05/10 09:43:22;;;;;;;2.35;1.90;;;;;;;13.91;36.74;101413.11;1720828;82;21033;-84
2022/05/10 09:46:23;;;;;;;3.02;2.08;;;;;;;14.11;37.01;101401.95;1725599;81;21249;-81
2022/05/10 09:48:51;;;;;;;3.35;1.67;;;;;;;14.54;38.56;101391.67;1724312;81;21074;-82
2022/05/10 09:51:36;;;;;;;4.15;2.22;;;;;;;14.99;35.10;101394.17;1695708;83;21094;-81
2022/05/10 09:54:11;;;;;;;2.52;1.75;;;;;;;14.97;37.42;101381.66;1732032;82;20994;-85
2022/05/10 09:56:44;;;;;;;2.87;2.35;;;;;;;15.02;35.03;101392.63;1734338;81;21581;-81
2022/05/10 09:59:41;;;;;;;2.90;1.77;;;;;;;14.91;37.08;101379.55;1733803;82;21132;-84
2022/05/10 10:02:09;;;;;;;2.98;1.50;;;;;;;14.85;34.88;101385.30;1714068;82;21086;-82
2022/05/10 10:04:42;;;;;;;3.45;1.60;;;;;;;14.77;36.25;101367.09;1732769;82;21466;-83
2022/05/10 10:07:20;;;;;;;3.25;1.82;;;;;;;14.94;37.46;101366.20;1736923;82;21732;-82
2022/05/10 10:09:52;;;;;;;2.75;1.60;;;;;;;15.32;35.61;101358.71;1729011;82;21004;-83
2022/05/10 10:12:38;;;;;;;4.20;1.62;;;;;;;15.58;35.98;101359.98;1686094;84;21063;-85
2022/05/10 10:15:24;;;;;;;3.40;1.75;;;;;;;15.66;37.53;101350.62;1729533;81;20990;-83
2022/05/10 10:17:58;;;;;;;2.95;1.90;;;;;;;15.58;35.74;101360.48;1746257;81;21502;-85
2022/05/10 10:20:44;;;;;;;1.82;1.47;;;;;;;15.33;35.53;101362.54;1737933;81;21038;-83
2022/05/10 10:23:27;;;;;;;2.22;1.70;;;;;;;15.03;35.79;101361.48;1733064;82;21114;-84
2022/05/10 10:26:12;;;;;;;2.45;1.60;;;;;;;14.78;36.09;101356.94;1737120;81;21256;-83
2022/05/10 10:29:17;;;;;;;1.90;1.70;;;;;;;14.65;36.36;101354.93;1726390;81;21003;-85
2022/05/10 10:32:19;;;;;;;3.95;1.80;;;;;;;14.65;36.25;101352.31;1714315;82;21060;-83
2022/05/10 10:35:13;;;;;;;2.80;2.10;;;;;;;14.56;36.21;101346.49;1736059;82;21069;-86
2022/05/10 10:37:50;;;;;;;2.70;1.87;;;;;;;14.44;35.76;101354.40;1668511;82;21565;-83
2022/05/10 10:40:43;;;;;;;3.30;1.82;;;;;;;14.56;35.74;101340.79;1717843;83;21566;-81
2022/05/10 10:43:47;;;;;;;4.05;2.15;;;;;;;14.80;35.11;101334.55;1717469;82;21038;-82
2022/05/10 10:46:38;;;;;;;6.03;2.30;;;;;;;14.88;35.62;101340.45;1736641;81;21030;-83
2022/05/10 10:49:42;;;;;;;3.25;1.98;;;;;;;14.87;34.43;101325.67;1713537;81;21114;-88
2022/05/10 10:52:12;;;;;;;3.92;2.33;;;;;;;15.06;35.65;101318.46;1732435;81;21065;-82
2022/05/10 10:54:40;;;;;;;3.20;1.92;;;;;;;15.32;37.08;101315.42;1683328;84;21923;-81
2022/05/10 10:57:53;;;;;;;3.25;2.10;;;;;;;15.48;34.21;101312.34;1723470;82;21101;-81
2022/05/10 11:00:24;;;;;;;3.05;1.98;;;;;;;15.50;34.66;101317.80;1728391;81;21093;-83
2022/05/10 11:03:09;;;;;;;2.70;1.70;;;;;;;15.33;33.32;101308.75;1686772;83;21572;-84
2022/05/10 11:06:05;;;;;;;2.75;1.92;;;;;;;15.19;35.97;101302.03;1742308;82;21061;-82
2022/05/10 11:08:48;;;;;;;2.45;1.77;;;;;;;15.12;32.72;101300.89;1741636;80;22298;-82
2022/05/10 11:11:59;;;;;;;2.52;1.70;;;;;;;14.97;35.14;101297.75;1720630;82;21019;-82
2022/05/10 11:14:53;;;;;;;2.85;1.70;;;;;;;14.92;35.56;101286.33;1687364;83;21025;-81
2022/05/10 11:17:38;;;;;;;2.10;1.90;;;;;;;15.02;34.49;101290.34;1684969;84;21528;-81
2022/05/10 11:20:19;;;;;;;5.17;1.55;;;;;;;14.86;35.24;101286.02;1671292;83;21645;-82
2022/05/10 11:23:03;;;;;;;3.22;1.80;;;;;;;14.79;35.50;101278.64;1676612;83;21472;-82
2022/05/10 11:25:58;;;;;;;2.70;1.85;;;;;;;15.18;34.11;101277.25;1686678;83;21624;-84
2022/05/10 11:28:36;;;;;;;2.15;1.75;;;;;;;15.56;33.11;101277.91;1695304;83;21607;-82
2022/05/10 11:31:40;;;;;;;1.77;1.55;;;;;;;15.88;32.99;101268.25;1666931;83;21114;-85
2022/05/10 11:34:43;;;;;;;5.33;2.22;;;;;;;16.14;33.54;101259.88;1732895;82;21634;-81
2022/05/10 11:37:19;;;;;;;1.70;1.60;;;;;;;16.16;33.39;101261.86;1698957;81;21144;-82
2022/05/10 11:40:02;;;;;;;2.50;1.60;;;;;;;16.17;32.82;101253.86;1678426;83;21066;-83
2022/05/10 11:42:52;;;;;;;4.15;1.70;;;;;;;16.45;34.08;101245.30;1678540;83;21097;-82
2022/05/10 11:45:59;;;;;;;1.90;1.35;;;;;;;16.56;34.32;101242.51;1656285;86;21050;-82
2022/05/10 11:48:41;;;;;;;2.22;1.50;;;;;;;16.57;32.75;101240.23;1689687;83;20995;-83
2022/05/10 11:51:42;;;;;;;2.37;1.85;;;;;;;16.32;32.59;101246.88;1672209;84;21990;-83
2022/05/10 11:54:50;;;;;;;4.15;2.00;;;;;;;16.05;31.72;101237.39;1668967;85;21050;-83
2022/05/10 11:57:21;;;;;;;3.65;1.62;;;;;;;15.83;32.63;101244.13;1667183;84;21031;-82
2022/05/10 11:59:48;;;;;;;2.45;1.60;;;;;;;15.86;31.96;101238.66;1667846;83;21347;-87
2022/05/10 12:02:36;;;;;;;3.37;1.60;;;;;;;15.78;31.67;101233.56;1744800;81;21065;-84
2022/05/10 12:05:16;;;;;;;5.90;2.60;;;;;;;15.82;33.83;101225.44;1729559;82;21081;-82
2022/05/10 12:08:05;;;;;;;2.92;1.62;;;;;;;16.24;33.52;101213.39;1685767;83;21757;-83
2022/05/10 12:10:44;;;;;;;2.40;1.55;;;;;;;16.59;30.63;101217.27;1673123;84;21072;-83
2022/05/10 12:22:52;;;;;;;2.25;1.47;;;;;;;16.58;31.19;101214.29;1738497;80;21038;-83
2022/05/10 12:25:42;;;;;;;;;;;;;;;16.66;31.84;101210.47;1744608;81;21049;-83
2022/05/10 12:28:09;;;;;;;2.98;1.65;;;;;;;16.56;32.03;101209.65;1704616;81;20191;-86
2022/05/10 12:30:38;;;;;;;1.82;1.57;;;;;;;16.50;32.09;101210.22;1698881;83;21024;-83
2022/05/10 12:33:35;;;;;;;3.25;1.60;;;;;;;16.44;33.60;101204.20;1687896;83;21223;-84
2022/05/10 12:36:11;;;;;;;2.60;1.60;;;;;;;16.46;34.44;101207.03;1678669;84;21104;-84
2022/05/10 12:38:50;;;;;;;2.95;1.60;;;;;;;16.61;32.74;101210.08;1671549;83;21055;-84
2022/05/10 12:41:47;;;;;;;3.33;1.50;;;;;;;16.39;30.98;101200.19;1681115;83;21020;-83
2022/05/10 12:44:40;;;;;;;2.77;1.60;;;;;;;15.93;31.16;101195.12;1696731;83;21073;-83